Time;durP1;ratioP1;P1;durP2;ratioP2;P2;SDS_P1;SDS_P2;PMS_P1;PMS_P2;Temp;Humidity;BMP_temperature;BMP_pressure;BME280_temperature;BME280_humidity;BME280_pressure;Samples;Min_cycle;Max_cycle;Signal;HPM_P1;HPM_P2
2023/10/18 00:00:28;;;;;;;14.38;9.32;;;8.60;99.90;;;;;;4129122;28;20093;-76
2023/10/18 00:02:28;;;;;;;15.13;10.10;;;8.50;99.90;;;;;;4121312;28;20086;-76
2023/10/18 00:04:29;;;;;;;16.00;10.10;;;8.50;99.90;;;;;;4129365;28;20030;-75
2023/10/18 00:06:31;;;;;;;13.68;9.20;;;8.40;99.90;;;;;;4127405;28;20045;-73
2023/10/18 00:08:32;;;;;;;15.73;9.45;;;8.50;99.90;;;;;;4129078;28;20038;-68
2023/10/18 00:10:33;;;;;;;11.15;8.07;;;8.40;99.90;;;;;;4111171;28;20487;-68
2023/10/18 00:12:34;;;;;;;15.27;9.10;;;8.50;99.90;;;;;;4129140;28;20046;-67
2023/10/18 00:14:35;;;;;;;12.55;8.48;;;8.40;99.90;;;;;;4118638;28;20038;-68
2023/10/18 00:16:36;;;;;;;12.05;7.53;;;8.40;99.90;;;;;;4128025;28;20124;-68
2023/10/18 00:18:36;;;;;;;13.30;8.85;;;8.50;99.90;;;;;;4126609;28;20049;-68
2023/10/18 00:20:37;;;;;;;11.70;8.15;;;8.40;99.90;;;;;;4128156;28;20483;-68
2023/10/18 00:22:38;;;;;;;12.60;8.35;;;8.40;99.90;;;;;;4128846;28;20034;-68
2023/10/18 00:24:39;;;;;;;12.57;8.20;;;8.40;99.90;;;;;;4127879;28;20049;-67
2023/10/18 00:26:39;;;;;;;10.25;7.47;;;8.40;99.90;;;;;;4128216;28;20495;-68
2023/10/18 00:28:40;;;;;;;9.45;6.78;;;8.40;99.90;;;;;;4127205;28;20045;-68
2023/10/18 00:30:41;;;;;;;11.77;8.10;;;8.40;99.90;;;;;;4126961;28;20479;-68
2023/10/18 00:32:42;;;;;;;10.73;7.75;;;8.40;99.90;;;;;;4126291;28;20176;-68
2023/10/18 00:34:43;;;;;;;14.23;7.70;;;8.30;99.90;;;;;;4127146;28;20038;-67
2023/10/18 00:36:45;;;;;;;10.80;6.82;;;8.30;99.90;;;;;;4126078;28;20537;-68
2023/10/18 00:38:47;;;;;;;11.15;7.72;;;8.20;99.90;;;;;;4129080;28;20042;-68
2023/10/18 00:40:51;;;;;;;9.25;6.57;;;8.30;99.90;;;;;;4128702;28;20035;-68
2023/10/18 00:42:52;;;;;;;10.95;7.13;;;8.40;99.90;;;;;;4129914;28;20034;-67
2023/10/18 00:45:01;;;;;;;13.85;8.45;;;8.40;99.90;;;;;;4112959;28;20035;-67
2023/10/18 00:47:03;;;;;;;11.63;7.65;;;8.30;99.90;;;;;;4128891;28;20026;-67
2023/10/18 00:49:13;;;;;;;9.52;7.30;;;8.30;99.90;;;;;;4130055;28;20054;-68
2023/10/18 00:51:18;;;;;;;11.88;8.35;;;8.30;99.90;;;;;;4129295;28;20047;-68
2023/10/18 00:53:23;;;;;;;12.80;7.47;;;8.20;99.90;;;;;;4130135;28;20073;-67
2023/10/18 00:55:24;;;;;;;10.25;7.00;;;8.20;99.90;;;;;;4111646;28;20043;-67
2023/10/18 00:57:34;;;;;;;10.50;7.43;;;8.20;99.90;;;;;;4129898;28;20030;-67
2023/10/18 00:59:38;;;;;;;17.95;9.43;;;8.20;99.90;;;;;;4129740;28;20039;-68
2023/10/18 01:01:43;;;;;;;14.57;9.82;;;8.10;99.90;;;;;;4109567;28;20047;-68
2023/10/18 01:03:50;;;;;;;12.90;8.90;;;8.10;99.90;;;;;;4129641;28;20034;-68
2023/10/18 01:06:17;;;;;;;12.85;8.13;;;8.10;99.90;;;;;;4126086;28;20333;-68
2023/10/18 01:08:21;;;;;;;19.05;9.18;;;8.20;99.90;;;;;;4129226;28;20121;-67
2023/10/18 01:10:24;;;;;;;14.65;9.10;;;8.10;99.90;;;;;;4128078;28;20046;-67
2023/10/18 01:12:25;;;;;;;12.50;8.93;;;8.10;99.90;;;;;;4129376;28;20045;-68
2023/10/18 01:14:27;;;;;;;15.38;9.57;;;8.10;99.90;;;;;;4115187;28;20035;-67
2023/10/18 01:16:35;;;;;;;14.55;9.32;;;8.00;99.90;;;;;;4111419;28;20123;-66
2023/10/18 01:18:35;;;;;;;14.00;9.10;;;8.10;99.90;;;;;;4129423;28;20034;-69
2023/10/18 01:20:40;;;;;;;13.38;9.50;;;8.00;99.90;;;;;;4129370;28;20446;-69
2023/10/18 01:22:42;;;;;;;15.57;10.65;;;7.90;99.90;;;;;;4112257;28;20098;-69
2023/10/18 01:24:43;;;;;;;14.60;8.57;;;7.90;99.90;;;;;;4130888;28;20042;-68
2023/10/18 01:26:44;;;;;;;12.88;8.32;;;7.90;99.90;;;;;;4122368;28;20038;-68
2023/10/18 01:28:46;;;;;;;11.50;7.32;;;7.90;99.90;;;;;;4125755;28;20035;-68
2023/10/18 01:30:47;;;;;;;11.10;6.63;;;7.90;99.90;;;;;;4128424;28;20394;-69
2023/10/18 01:32:48;;;;;;;10.98;7.10;;;7.90;99.90;;;;;;4111921;28;20082;-68
2023/10/18 01:34:49;;;;;;;10.63;6.53;;;7.80;99.90;;;;;;4129031;28;20034;-69
2023/10/18 01:36:52;;;;;;;8.60;5.70;;;7.90;99.90;;;;;;4107338;28;20058;-69
2023/10/18 01:38:54;;;;;;;9.15;6.18;;;7.90;99.90;;;;;;4129526;28;20030;-69
2023/10/18 01:40:57;;;;;;;10.30;6.93;;;7.90;99.90;;;;;;4104050;28;20464;-68
2023/10/18 01:42:58;;;;;;;10.30;6.97;;;7.90;99.90;;;;;;4126157;28;20030;-69
2023/10/18 01:44:58;;;;;;;8.60;6.25;;;7.80;99.90;;;;;;4129560;28;20529;-69
2023/10/18 01:47:06;;;;;;;9.50;6.25;;;7.80;99.90;;;;;;4127215;28;20049;-68
2023/10/18 01:49:07;;;;;;;11.90;7.10;;;7.80;99.90;;;;;;4110863;28;20122;-68
2023/10/18 01:51:09;;;;;;;10.90;6.53;;;7.70;99.90;;;;;;4128633;28;20054;-68
2023/10/18 01:53:15;;;;;;;13.60;6.38;;;7.80;99.90;;;;;;4110651;28;20038;-69
2023/10/18 01:55:17;;;;;;;10.82;6.85;;;7.80;99.90;;;;;;4127103;28;20398;-69
2023/10/18 01:57:18;;;;;;;12.37;7.53;;;7.80;99.90;;;;;;4128170;28;20107;-69
2023/10/18 01:59:19;;;;;;;12.68;8.02;;;7.80;99.90;;;;;;4129182;28;20042;-69
2023/10/18 02:01:19;;;;;;;12.57;8.32;;;7.70;99.90;;;;;;4126793;28;20579;-68
2023/10/18 02:03:20;;;;;;;15.60;9.00;;;7.70;99.90;;;;;;4108698;28;20035;-69
2023/10/18 02:05:21;;;;;;;15.07;8.77;;;7.70;99.90;;;;;;4126055;28;20054;-69
2023/10/18 02:07:22;;;;;;;13.63;8.80;;;7.70;99.90;;;;;;4129075;28;20038;-69
2023/10/18 02:09:26;;;;;;;14.55;9.35;;;7.70;99.90;;;;;;4127209;28;20030;-68
2023/10/18 02:11:35;;;;;;;15.63;9.00;;;7.70;99.90;;;;;;4125229;28;20064;-69
2023/10/18 02:13:39;;;;;;;15.73;9.27;;;7.80;99.90;;;;;;4127782;28;20034;-68
2023/10/18 02:15:40;;;;;;;17.10;9.88;;;7.70;99.90;;;;;;4126800;28;20049;-69
2023/10/18 02:17:43;;;;;;;17.73;10.00;;;7.70;99.90;;;;;;4128674;28;20043;-68
2023/10/18 02:19:44;;;;;;;15.93;8.88;;;7.70;99.90;;;;;;4127939;28;20044;-69
2023/10/18 02:21:47;;;;;;;17.02;10.57;;;7.70;99.90;;;;;;4127759;28;20064;-68
2023/10/18 02:23:50;;;;;;;16.63;10.15;;;7.60;99.90;;;;;;4110740;28;20034;-69
2023/10/18 02:25:52;;;;;;;15.75;9.63;;;7.60;99.90;;;;;;4127910;28;20049;-68
2023/10/18 02:27:53;;;;;;;15.88;10.20;;;7.60;99.90;;;;;;4128508;28;20034;-72
2023/10/18 02:29:53;;;;;;;15.60;10.77;;;7.60;99.90;;;;;;4127811;28;20058;-72
2023/10/18 02:31:57;;;;;;;17.45;10.60;;;7.60;99.90;;;;;;4127181;28;20050;-72
2023/10/18 02:33:58;;;;;;;19.30;12.52;;;7.60;99.90;;;;;;4128443;28;20092;-73
2023/10/18 02:35:59;;;;;;;21.15;12.55;;;7.50;99.90;;;;;;4127640;28;20039;-73
2023/10/18 02:38:08;;;;;;;20.02;12.45;;;7.50;99.90;;;;;;4111352;28;20062;-73
2023/10/18 02:40:09;;;;;;;16.38;10.88;;;7.40;99.90;;;;;;4109388;28;20066;-73
2023/10/18 02:42:13;;;;;;;16.55;10.18;;;7.50;99.90;;;;;;4127482;28;20121;-73
2023/10/18 02:44:21;;;;;;;17.50;11.25;;;7.50;99.90;;;;;;4111317;28;20047;-73
2023/10/18 02:46:23;;;;;;;15.57;10.40;;;7.40;99.90;;;;;;4123505;28;20457;-73
2023/10/18 02:48:24;;;;;;;20.25;11.70;;;7.40;99.90;;;;;;4124192;28;20034;-72
2023/10/18 02:50:25;;;;;;;15.55;9.70;;;7.40;99.90;;;;;;4123529;28;20065;-73
2023/10/18 02:52:30;;;;;;;14.50;9.38;;;7.50;99.90;;;;;;4125568;28;20045;-73
2023/10/18 02:54:32;;;;;;;19.95;12.32;;;7.60;99.90;;;;;;4108210;28;20062;-72
2023/10/18 02:56:33;;;;;;;16.77;10.57;;;7.50;99.90;;;;;;4123495;28;20058;-73
2023/10/18 02:58:38;;;;;;;20.02;11.68;;;7.60;99.90;;;;;;4122786;28;20039;-72
2023/10/18 03:00:42;;;;;;;18.77;12.27;;;7.50;99.90;;;;;;4122675;28;20129;-72
2023/10/18 03:02:42;;;;;;;20.63;12.40;;;7.50;99.90;;;;;;4125246;28;20241;-73
2023/10/18 03:04:43;;;;;;;17.77;11.02;;;7.40;99.90;;;;;;4124169;28;20302;-72
2023/10/18 03:06:45;;;;;;;16.70;11.02;;;7.40;99.90;;;;;;4123780;28;20464;-73
2023/10/18 03:08:49;;;;;;;15.17;10.83;;;7.30;99.90;;;;;;4124368;28;20035;-73
2023/10/18 03:10:51;;;;;;;20.95;11.05;;;7.30;99.90;;;;;;4124103;28;20293;-73
2023/10/18 03:12:52;;;;;;;14.30;9.52;;;7.20;99.90;;;;;;4123943;28;20070;-72
2023/10/18 03:14:56;;;;;;;14.18;9.70;;;7.20;99.90;;;;;;4124396;28;20034;-72
2023/10/18 03:16:56;;;;;;;14.43;9.02;;;7.20;99.90;;;;;;4123881;28;20050;-72
2023/10/18 03:18:59;;;;;;;14.52;9.00;;;7.20;99.90;;;;;;4117181;28;20042;-72
2023/10/18 03:21:08;;;;;;;14.70;8.77;;;7.20;99.90;;;;;;4122820;28;20034;-72
2023/10/18 03:23:08;;;;;;;11.57;8.43;;;7.20;99.90;;;;;;4124924;28;20034;-73
2023/10/18 03:25:10;;;;;;;14.23;9.38;;;7.20;99.90;;;;;;4124706;28;20427;-73
2023/10/18 03:27:11;;;;;;;13.23;8.45;;;7.20;99.90;;;;;;4124494;28;20046;-73
2023/10/18 03:29:12;;;;;;;15.48;8.85;;;7.20;99.90;;;;;;4124978;28;20066;-73
2023/10/18 03:31:24;;;;;;;15.40;9.35;;;7.20;99.90;;;;;;4123292;28;20438;-72
2023/10/18 03:33:28;;;;;;;14.48;8.98;;;7.10;99.90;;;;;;4123904;28;20026;-72
2023/10/18 03:35:31;;;;;;;13.60;9.15;;;7.10;99.90;;;;;;4123249;28;20121;-73
2023/10/18 03:37:33;;;;;;;13.80;8.27;;;7.10;99.90;;;;;;4125028;28;20034;-67
2023/10/18 03:39:34;;;;;;;8.88;6.25;;;7.10;99.90;;;;;;4124967;28;20034;-68
2023/10/18 03:41:34;;;;;;;12.13;7.55;;;7.10;99.90;;;;;;4123877;28;20124;-67
2023/10/18 03:43:36;;;;;;;13.77;7.68;;;7.00;99.90;;;;;;4124737;28;20486;-67
2023/10/18 03:46:07;;;;;;;11.43;6.72;;;7.00;99.90;;;;;;4123423;28;20039;-68
2023/10/18 03:48:23;;;;;;;12.60;7.47;;;7.10;99.90;;;;;;4123014;28;20046;-68
2023/10/18 03:50:40;;;;;;;8.77;6.28;;;7.00;99.90;;;;;;4120774;28;20354;-68
2023/10/18 03:52:45;;;;;;;9.55;6.38;;;7.00;99.90;;;;;;4121549;28;20038;-67
2023/10/18 03:55:13;;;;;;;10.07;6.30;;;7.10;99.90;;;;;;4120298;28;20081;-67
2023/10/18 03:57:07;;;;;;;14.00;6.70;;;7.00;99.90;;;;;;4121934;28;20072;-67
2023/10/18 03:59:20;;;;;;;11.80;6.63;;;7.00;99.90;;;;;;4124765;28;20070;-67
2023/10/18 04:01:22;;;;;;;8.98;6.10;;;7.00;99.90;;;;;;4122698;28;20049;-67
2023/10/18 04:03:28;;;;;;;11.15;6.35;;;7.10;99.90;;;;;;4120964;28;20045;-68
2023/10/18 04:05:40;;;;;;;11.82;6.45;;;7.00;99.90;;;;;;4122499;28;20052;-67
2023/10/18 04:07:42;;;;;;;9.18;5.80;;;7.00;99.90;;;;;;4124475;28;20035;-67
2023/10/18 04:10:27;;;;;;;10.40;6.60;;;7.10;99.90;;;;;;4124481;28;20147;-67
2023/10/18 04:12:08;;;;;;;10.80;6.60;;;7.00;99.90;;;;;;4107167;28;20041;-67
2023/10/18 04:14:10;;;;;;;10.02;6.15;;;6.90;99.90;;;;;;4130546;28;20452;-67
2023/10/18 04:16:11;;;;;;;9.65;6.47;;;7.00;99.90;;;;;;4128415;28;20491;-67
2023/10/18 04:18:12;;;;;;;9.77;5.78;;;7.00;99.90;;;;;;4118064;28;20038;-67
2023/10/18 04:22:22;;;;;;;9.43;6.30;;;6.90;99.90;;;;;;4127346;28;20045;-67
2023/10/18 04:24:23;;;;;;;10.98;6.07;;;7.00;99.90;;;;;;4130114;28;20030;-67
2023/10/18 04:26:27;;;;;;;9.82;6.30;;;7.00;99.90;;;;;;4112513;28;20126;-67
2023/10/18 04:28:38;;;;;;;9.43;5.70;;;7.00;99.90;;;;;;4111996;28;20130;-67
2023/10/18 04:30:39;;;;;;;9.27;6.30;;;7.00;99.90;;;;;;4111709;28;20159;-67
2023/10/18 04:32:39;;;;;;;8.85;5.75;;;7.00;99.90;;;;;;4129860;28;20058;-67
2023/10/18 04:34:40;;;;;;;11.05;6.03;;;7.00;99.90;;;;;;4129162;28;20122;-67
2023/10/18 04:36:43;;;;;;;11.65;6.45;;;7.00;99.90;;;;;;4111943;28;20039;-67
2023/10/18 04:38:44;;;;;;;9.52;5.60;;;7.00;99.90;;;;;;4112852;28;20042;-67
2023/10/18 04:40:52;;;;;;;7.88;5.80;;;7.00;99.90;;;;;;4129579;28;20038;-67
2023/10/18 04:42:57;;;;;;;8.38;5.70;;;7.00;99.90;;;;;;4130187;28;20498;-67
2023/10/18 04:44:58;;;;;;;11.13;6.03;;;7.00;99.90;;;;;;4130114;28;20088;-67
2023/10/18 04:46:59;;;;;;;11.57;6.75;;;6.90;99.90;;;;;;4117130;28;20030;-66
2023/10/18 04:49:00;;;;;;;13.27;6.43;;;6.80;99.90;;;;;;4112750;28;20043;-67
2023/10/18 04:51:06;;;;;;;13.10;7.05;;;6.80;99.90;;;;;;4129122;28;20034;-66
2023/10/18 04:53:14;;;;;;;9.82;6.10;;;6.80;99.90;;;;;;4125344;28;20378;-66
2023/10/18 04:55:15;;;;;;;9.10;6.00;;;6.80;99.90;;;;;;4107811;28;20045;-66
2023/10/18 04:57:16;;;;;;;11.50;6.88;;;6.80;99.90;;;;;;4129009;28;20038;-66
2023/10/18 05:01:22;;;;;;;11.45;6.15;;;6.80;99.90;;;;;;4124322;28;20031;-72
2023/10/18 05:03:30;;;;;;;11.27;6.60;;;6.80;99.90;;;;;;4129602;28;21713;-72
2023/10/18 05:05:31;;;;;;;8.88;6.28;;;6.80;99.90;;;;;;4127034;28;20503;-71
2023/10/18 05:07:42;;;;;;;10.50;6.57;;;6.80;99.90;;;;;;4123042;28;20157;-70
2023/10/18 05:09:43;;;;;;;8.15;5.90;;;6.80;99.90;;;;;;4112301;28;20035;-72
2023/10/18 05:11:47;;;;;;;14.13;6.20;;;6.80;99.90;;;;;;4111565;28;20042;-72
2023/10/18 05:13:48;;;;;;;10.55;6.88;;;6.70;99.90;;;;;;4111831;28;20034;-72
2023/10/18 05:15:51;;;;;;;9.70;6.15;;;6.70;99.90;;;;;;4128041;28;20054;-72
2023/10/18 05:17:57;;;;;;;13.98;6.70;;;6.80;99.90;;;;;;4129370;28;20376;-72
2023/10/18 05:19:58;;;;;;;11.45;6.90;;;6.80;99.90;;;;;;4127658;28;20027;-70
2023/10/18 05:22:03;;;;;;;16.48;7.72;;;6.80;99.90;;;;;;4128652;28;20594;-70
2023/10/18 05:24:04;;;;;;;12.85;6.78;;;6.80;99.90;;;;;;4125330;28;20482;-69
2023/10/18 05:26:08;;;;;;;10.00;6.15;;;6.80;99.90;;;;;;4107904;28;20099;-69
2023/10/18 05:28:17;;;;;;;11.32;7.45;;;6.80;99.90;;;;;;4087479;28;20070;-70
2023/10/18 05:30:26;;;;;;;10.77;6.88;;;6.80;99.90;;;;;;4126722;28;20390;-71
2023/10/18 05:33:15;;;;;;;11.63;6.57;;;6.80;99.90;;;;;;4124388;28;20076;-71
2023/10/18 05:34:54;;;;;;;8.90;5.82;;;6.80;99.90;;;;;;4111506;28;20128;-70
2023/10/18 05:36:54;;;;;;;9.48;5.40;;;6.80;99.90;;;;;;4097601;28;20485;-70
2023/10/18 05:38:56;;;;;;;11.00;6.50;;;6.80;99.90;;;;;;4115239;28;20030;-70
2023/10/18 05:40:58;;;;;;;8.43;5.80;;;6.80;99.90;;;;;;4110404;28;20053;-70
2023/10/18 05:43:00;;;;;;;9.73;5.82;;;6.90;99.90;;;;;;4125387;28;20062;-70
2023/10/18 05:45:01;;;;;;;13.50;6.18;;;6.90;99.90;;;;;;4123075;28;20404;-70
2023/10/18 05:47:06;;;;;;;11.98;5.57;;;6.80;99.90;;;;;;4122465;28;20114;-70
2023/10/18 05:49:23;;;;;;;11.30;5.80;;;6.80;99.90;;;;;;4121166;28;20126;-71
2023/10/18 05:53:29;;;;;;;9.40;5.93;;;6.90;99.90;;;;;;4103077;28;20109;-70
2023/10/18 05:55:30;;;;;;;9.07;5.30;;;6.80;99.90;;;;;;4124902;28;20379;-70
2023/10/18 05:57:31;;;;;;;9.25;5.07;;;6.90;99.90;;;;;;4114620;28;20057;-70
2023/10/18 05:59:31;;;;;;;7.05;5.00;;;6.90;99.90;;;;;;4121120;28;20189;-70
2023/10/18 06:01:32;;;;;;;7.47;5.15;;;6.90;99.90;;;;;;4106078;28;20041;-70
2023/10/18 06:03:39;;;;;;;7.97;5.15;;;7.00;99.90;;;;;;4125559;28;20053;-66
2023/10/18 06:05:39;;;;;;;8.32;5.35;;;7.00;99.90;;;;;;4124260;28;20054;-66
2023/10/18 06:07:41;;;;;;;8.10;5.40;;;6.90;99.90;;;;;;4125872;28;20463;-66
2023/10/18 06:11:48;;;;;;;10.25;5.95;;;6.90;99.90;;;;;;4122945;28;20098;-66
2023/10/18 06:13:48;;;;;;;9.82;5.75;;;7.00;99.90;;;;;;4124680;28;20129;-66
2023/10/18 06:15:53;;;;;;;9.70;5.45;;;7.00;99.90;;;;;;4121407;28;20447;-66
2023/10/18 06:17:57;;;;;;;11.18;5.95;;;6.90;99.90;;;;;;4125455;28;20487;-66
2023/10/18 06:19:57;;;;;;;10.00;5.75;;;7.00;99.90;;;;;;4112891;28;20036;-68
2023/10/18 06:21:59;;;;;;;9.73;6.05;;;7.00;99.90;;;;;;4124056;28;20026;-66
2023/10/18 06:24:08;;;;;;;11.35;5.25;;;6.90;99.90;;;;;;4125511;28;20027;-66
2023/10/18 06:26:28;;;;;;;8.73;5.38;;;7.00;99.90;;;;;;4109655;28;20506;-66
2023/10/18 06:28:30;;;;;;;10.95;5.35;;;7.00;99.90;;;;;;4127938;28;20050;-66
2023/10/18 06:30:31;;;;;;;12.05;5.95;;;7.00;99.90;;;;;;4126605;28;20433;-66
2023/10/18 06:32:33;;;;;;;8.80;5.60;;;7.00;99.90;;;;;;4126788;28;20042;-66
2023/10/18 06:34:34;;;;;;;13.65;7.13;;;7.00;99.90;;;;;;4120354;28;20088;-66
2023/10/18 06:36:34;;;;;;;10.00;5.70;;;7.00;99.90;;;;;;4126099;28;20498;-67
2023/10/18 06:38:35;;;;;;;10.45;5.47;;;7.00;99.90;;;;;;4117063;28;20126;-67
2023/10/18 06:42:57;;;;;;;12.73;5.78;;;7.20;99.90;;;;;;4120115;28;20073;-67
2023/10/18 06:44:58;;;;;;;14.65;6.07;;;7.10;99.90;;;;;;4128383;28;20031;-66
2023/10/18 06:47:06;;;;;;;7.75;4.80;;;7.30;99.90;;;;;;4127799;28;20109;-66
2023/10/18 06:49:10;;;;;;;9.30;4.88;;;7.20;99.90;;;;;;4112642;28;20399;-67
2023/10/18 06:51:17;;;;;;;9.70;5.38;;;7.30;99.90;;;;;;4125916;28;20038;-66
2023/10/18 06:53:17;;;;;;;8.90;5.25;;;7.30;99.90;;;;;;4125600;28;20033;-66
2023/10/18 06:55:44;;;;;;;9.35;5.20;;;7.30;99.90;;;;;;4128801;28;20058;-67
2023/10/18 06:57:49;;;;;;;7.85;5.00;;;7.40;99.90;;;;;;4116091;28;20467;-66
2023/10/18 06:59:50;;;;;;;8.70;5.45;;;7.40;99.90;;;;;;4127797;28;20084;-66
2023/10/18 07:02:00;;;;;;;8.38;5.32;;;7.40;99.90;;;;;;4125802;28;20045;-66
2023/10/18 07:04:00;;;;;;;13.00;5.40;;;7.40;99.90;;;;;;4129125;28;20042;-66
2023/10/18 07:06:04;;;;;;;8.73;5.35;;;7.40;99.90;;;;;;4127699;28;20113;-66
2023/10/18 07:08:18;;;;;;;8.93;5.15;;;7.40;99.90;;;;;;4129425;28;20026;-66
2023/10/18 07:10:51;;;;;;;12.20;6.07;;;7.50;99.90;;;;;;4128047;28;20399;-67
2023/10/18 07:12:47;;;;;;;;;;;7.40;99.90;;;;;;4128636;28;20042;-66
2023/10/18 07:14:48;;;;;;;10.77;5.57;;;7.50;99.90;;;;;;4126308;28;20377;-67
2023/10/18 07:16:48;;;;;;;10.48;5.60;;;7.50;99.90;;;;;;4125904;28;20042;-66
2023/10/18 07:19:03;;;;;;;13.65;6.20;;;7.50;99.90;;;;;;4129525;28;20039;-66
2023/10/18 07:21:09;;;;;;;9.32;5.07;;;7.50;99.90;;;;;;4126475;28;20062;-72
2023/10/18 07:23:17;;;;;;;8.32;5.18;;;7.60;99.90;;;;;;4113254;28;20113;-67
2023/10/18 07:25:27;;;;;;;9.15;5.57;;;7.70;99.90;;;;;;4119520;28;20049;-67
2023/10/18 07:27:30;;;;;;;9.40;5.68;;;7.70;99.90;;;;;;4128633;28;20035;-67
2023/10/18 07:29:32;;;;;;;11.00;5.72;;;7.80;99.90;;;;;;4129185;28;20031;-67
2023/10/18 07:31:39;;;;;;;9.38;5.50;;;7.80;99.90;;;;;;4122962;28;20364;-67
2023/10/18 07:33:40;;;;;;;12.32;6.72;;;7.90;99.90;;;;;;4106960;28;20039;-68
2023/10/18 07:35:45;;;;;;;7.60;4.97;;;7.90;99.90;;;;;;4112481;28;20176;-67
2023/10/18 07:37:46;;;;;;;10.85;6.28;;;8.00;99.90;;;;;;4096191;28;20041;-67
2023/10/18 07:39:57;;;;;;;8.98;5.32;;;8.10;99.90;;;;;;4129274;28;20505;-67
2023/10/18 07:41:58;;;;;;;9.23;5.55;;;8.10;99.90;;;;;;4128168;28;20076;-67
2023/10/18 07:44:00;;;;;;;14.45;6.38;;;8.10;99.90;;;;;;4129282;28;20037;-67
2023/10/18 07:46:06;;;;;;;11.95;6.35;;;8.10;99.90;;;;;;4128356;28;20034;-67
2023/10/18 07:48:11;;;;;;;8.60;5.80;;;8.10;99.90;;;;;;4132332;28;20415;-68
2023/10/18 07:52:31;;;;;;;9.13;5.90;;;8.20;99.90;;;;;;4131959;28;20452;-67
2023/10/18 07:54:35;;;;;;;11.20;6.00;;;8.20;99.90;;;;;;4131336;28;20225;-67
2023/10/18 07:56:40;;;;;;;8.90;5.82;;;8.30;99.90;;;;;;4113657;28;20542;-67
2023/10/18 07:58:48;;;;;;;9.18;5.10;;;8.30;99.90;;;;;;4132125;28;20042;-67
2023/10/18 08:03:05;;;;;;;9.30;5.22;;;8.50;99.90;;;;;;4132183;28;20026;-67
2023/10/18 08:05:08;;;;;;;7.70;5.05;;;8.70;99.90;;;;;;4112927;28;20458;-68
2023/10/18 08:07:12;;;;;;;9.48;5.00;;;8.90;99.90;;;;;;4130396;28;20458;-67
2023/10/18 08:09:13;;;;;;;11.52;5.13;;;9.00;99.90;;;;;;4116586;28;20487;-67
2023/10/18 08:11:13;;;;;;;10.73;6.30;;;9.20;99.90;;;;;;4115508;28;20031;-67
2023/10/18 08:13:16;;;;;;;9.70;5.85;;;9.30;99.90;;;;;;4117762;28;20403;-67
2023/10/18 08:15:17;;;;;;;8.50;5.63;;;9.40;99.90;;;;;;4121778;28;20031;-67
2023/10/18 08:19:55;;;;;;;9.60;5.00;;;9.70;99.90;;;;;;4122887;28;20512;-68
2023/10/18 08:24:25;;;;;;;9.30;4.45;;;10.10;99.90;;;;;;4116249;28;20031;-67
2023/10/18 08:26:26;;;;;;;8.73;4.82;;;10.10;99.90;;;;;;4116099;28;20030;-68
2023/10/18 08:28:27;;;;;;;8.32;4.47;;;10.20;99.90;;;;;;4114225;28;20026;-67
2023/10/18 08:30:43;;;;;;;7.72;4.22;;;10.20;99.90;;;;;;4112992;28;20035;-67
2023/10/18 08:32:43;;;;;;;8.68;4.97;;;10.30;99.90;;;;;;4115522;28;20427;-68
2023/10/18 08:34:45;;;;;;;8.38;4.55;;;10.50;99.90;;;;;;4116144;28;20031;-68
2023/10/18 08:36:46;;;;;;;8.32;4.25;;;10.70;99.90;;;;;;4114747;28;20070;-68
2023/10/18 08:38:46;;;;;;;5.53;3.90;;;10.80;99.90;;;;;;4116248;28;20105;-68
2023/10/18 08:40:49;;;;;;;11.05;4.35;;;10.90;99.90;;;;;;4113496;28;20038;-68
2023/10/18 08:42:52;;;;;;;7.55;4.20;;;10.90;99.90;;;;;;4115299;28;20054;-68
2023/10/18 08:44:55;;;;;;;8.80;4.15;;;11.10;99.90;;;;;;4112161;28;20031;-68
2023/10/18 08:49:15;;;;;;;;;;;11.20;99.90;;;;;;4119938;28;20459;-68
2023/10/18 08:51:16;;;;;;;8.27;4.20;;;11.30;99.90;;;;;;4127789;28;19910;-68
2023/10/18 08:53:22;;;;;;;7.03;4.03;;;11.40;99.90;;;;;;4126069;28;20034;-68
2023/10/18 08:55:32;;;;;;;7.78;4.38;;;11.40;99.90;;;;;;4105676;28;20853;-69
2023/10/18 08:57:35;;;;;;;6.82;4.10;;;11.30;99.90;;;;;;4115124;28;20085;-69
2023/10/18 08:59:50;;;;;;;6.45;4.25;;;11.40;99.90;;;;;;4129720;28;20046;-68
2023/10/18 09:02:12;;;;;;;9.48;4.28;;;11.50;99.90;;;;;;4126236;28;20035;-68
2023/10/18 09:04:12;;;;;;;7.20;4.00;;;11.50;99.90;;;;;;4114928;28;20039;-68
2023/10/18 09:06:22;;;;;;;6.72;4.10;;;11.60;99.90;;;;;;4125209;28;20046;-69
2023/10/18 09:08:26;;;;;;;8.07;3.97;;;11.60;99.90;;;;;;4130426;28;20034;-68
2023/10/18 09:14:50;;;;;;;7.63;3.50;;;11.80;99.90;;;;;;4115061;28;20035;-68
2023/10/18 09:17:00;;;;;;;8.13;3.97;;;11.90;99.90;;;;;;4116123;28;20046;-68
2023/10/18 09:19:01;;;;;;;6.50;3.45;;;12.00;99.90;;;;;;4130514;28;20030;-69
2023/10/18 09:21:09;;;;;;;6.60;3.85;;;12.00;99.90;;;;;;4130025;28;20037;-69
2023/10/18 09:23:16;;;;;;;7.70;3.92;;;12.10;99.90;;;;;;4129836;28;20045;-69
2023/10/18 09:25:17;;;;;;;9.02;4.18;;;12.20;99.90;;;;;;4130728;28;20030;-69
2023/10/18 09:27:22;;;;;;;6.53;3.90;;;12.20;99.90;;;;;;4131390;28;20026;-69
2023/10/18 09:29:26;;;;;;;8.55;4.35;;;12.20;99.90;;;;;;4131704;28;20386;-68
2023/10/18 09:31:26;;;;;;;6.05;3.70;;;12.20;99.90;;;;;;4128918;28;20042;-68
2023/10/18 09:33:35;;;;;;;7.95;3.70;;;12.30;99.90;;;;;;4130716;28;20399;-68
2023/10/18 09:35:35;;;;;;;6.03;3.80;;;12.30;99.90;;;;;;4130034;28;20518;-68
2023/10/18 09:37:36;;;;;;;6.82;4.07;;;12.40;99.90;;;;;;4129294;28;20034;-68
2023/10/18 09:39:37;;;;;;;13.07;4.65;;;12.40;99.90;;;;;;4113629;28;20039;-68
2023/10/18 09:41:39;;;;;;;7.65;4.45;;;12.40;99.90;;;;;;4130167;28;20042;-69
2023/10/18 09:43:39;;;;;;;7.10;4.35;;;12.50;99.90;;;;;;4129251;28;20034;-70
2023/10/18 09:45:40;;;;;;;7.38;4.35;;;12.50;99.90;;;;;;4129695;28;20121;-70
2023/10/18 09:47:41;;;;;;;7.78;4.35;;;12.50;99.90;;;;;;4128345;28;20038;-70
2023/10/18 09:49:42;;;;;;;9.05;4.15;;;12.60;99.90;;;;;;4130499;28;20073;-70
2023/10/18 09:51:44;;;;;;;8.32;4.43;;;12.60;99.90;;;;;;4130142;28;20511;-70
2023/10/18 09:53:55;;;;;;;10.95;5.10;;;12.60;99.90;;;;;;4130883;28;20042;-70
2023/10/18 09:55:57;;;;;;;9.73;4.97;;;12.60;99.90;;;;;;4129845;28;20494;-70
2023/10/18 09:58:04;;;;;;;7.72;4.40;;;12.70;99.90;;;;;;4130092;28;20049;-70
2023/10/18 10:00:11;;;;;;;8.18;4.68;;;12.70;99.90;;;;;;4129623;28;20041;-71
2023/10/18 10:02:15;;;;;;;10.32;5.35;;;12.80;99.90;;;;;;4129304;28;20034;-69
2023/10/18 10:04:20;;;;;;;5.75;3.90;;;12.70;99.90;;;;;;4130413;28;20065;-70
2023/10/18 10:06:23;;;;;;;8.95;4.78;;;12.80;99.90;;;;;;4099975;28;20054;-70
2023/10/18 10:08:24;;;;;;;;;;;12.80;99.90;;;;;;4113791;28;20038;-70
2023/10/18 10:10:43;;;;;;;9.43;4.70;;;12.80;99.90;;;;;;4112892;28;20291;-70
2023/10/18 10:12:45;;;;;;;5.93;3.80;;;12.90;99.90;;;;;;4113820;28;20443;-70
2023/10/18 10:14:46;;;;;;;8.37;4.10;;;12.90;99.90;;;;;;4113244;28;20047;-70
2023/10/18 10:17:05;;;;;;;8.52;5.05;;;13.00;99.90;;;;;;4113441;28;20043;-70
2023/10/18 10:19:11;;;;;;;8.05;4.35;;;13.00;99.90;;;;;;4113346;28;20058;-70
2023/10/18 10:21:13;;;;;;;8.90;4.70;;;13.10;99.90;;;;;;4113061;28;20041;-70
2023/10/18 10:23:16;;;;;;;13.52;4.70;;;13.20;99.90;;;;;;4113055;28;20037;-69
2023/10/18 10:25:30;;;;;;;11.23;4.82;;;13.30;99.90;;;;;;4097322;28;20475;-71
2023/10/18 10:29:34;;;;;;;9.15;4.38;;;13.50;99.90;;;;;;4114395;28;20035;-70
2023/10/18 10:31:53;;;;;;;8.60;4.80;;;13.50;99.90;;;;;;4113281;28;20035;-70
2023/10/18 10:34:06;;;;;;;10.73;4.63;;;13.60;99.90;;;;;;4109969;28;20368;-70
2023/10/18 10:36:12;;;;;;;9.00;4.40;;;13.70;99.90;;;;;;4096947;28;20051;-70
2023/10/18 10:38:13;;;;;;;12.52;4.80;;;13.80;99.90;;;;;;4113452;28;20054;-70
2023/10/18 10:42:41;;;;;;;6.88;3.42;;;13.90;99.90;;;;;;4119762;28;20030;-70
2023/10/18 10:45:02;;;;;;;6.45;3.60;;;14.00;99.90;;;;;;4113178;28;20046;-70
2023/10/18 10:47:29;;;;;;;6.75;3.78;;;14.10;99.90;;;;;;4111844;28;20113;-69
2023/10/18 10:49:48;;;;;;;7.18;3.85;;;14.10;99.90;;;;;;4109079;28;20030;-71
2023/10/18 10:51:56;;;;;;;8.50;4.53;;;14.20;99.90;;;;;;4112783;28;20043;-67
2023/10/18 10:53:57;;;;;;;5.68;3.50;;;14.30;99.90;;;;;;4113676;28;20035;-67
2023/10/18 10:56:06;;;;;;;8.18;3.63;;;14.30;99.90;;;;;;4112782;28;20043;-67
2023/10/18 10:58:17;;;;;;;5.78;3.20;;;14.40;99.90;;;;;;4112479;28;20067;-67
2023/10/18 11:02:40;;;;;;;4.63;2.75;;;14.40;99.90;;;;;;4095933;28;20031;-67
2023/10/18 11:04:57;;;;;;;5.43;3.00;;;14.50;99.90;;;;;;4113147;28;20035;-67
2023/10/18 11:07:08;;;;;;;4.97;2.85;;;14.60;99.90;;;;;;4129274;28;20053;-67
2023/10/18 11:09:15;;;;;;;5.38;2.80;;;14.60;99.90;;;;;;4129523;28;20490;-67
2023/10/18 11:11:17;;;;;;;8.45;2.70;;;14.60;99.90;;;;;;4119052;28;20090;-67
2023/10/18 11:13:22;;;;;;;5.57;2.90;;;14.70;99.90;;;;;;4114925;28;20027;-67
2023/10/18 11:15:27;;;;;;;4.90;2.70;;;14.70;99.90;;;;;;4112824;28;20101;-67
2023/10/18 11:17:29;;;;;;;4.57;2.33;;;14.70;99.90;;;;;;4118118;28;20086;-67
2023/10/18 11:19:29;;;;;;;4.68;2.63;;;14.80;99.90;;;;;;4119898;28;20097;-67
2023/10/18 11:21:30;;;;;;;6.65;2.80;;;14.80;99.90;;;;;;4112962;28;20034;-67